createdAt,value
2018-01-24T00:00:09.263Z,90.80
2018-01-24T00:02:36.782Z,90.80
2018-01-24T00:05:04.464Z,90.80
2018-01-24T00:07:32.047Z,91.20
2018-01-24T00:09:59.596Z,91.00
2018-01-24T00:12:27.138Z,91.10
2018-01-24T00:14:54.668Z,91.10
2018-01-24T00:17:22.244Z,91.00
2018-01-24T00:19:50.654Z,91.10
2018-01-24T00:22:18.188Z,91.10
2018-01-24T00:24:46.541Z,91.40
2018-01-24T00:27:14.032Z,91.30
2018-01-24T00:29:41.559Z,91.50
2018-01-24T00:32:09.104Z,91.70
2018-01-24T00:34:36.655Z,92.20
2018-01-24T00:37:04.189Z,92.20
2018-01-24T00:39:32.613Z,92.70
2018-01-24T00:42:00.125Z,92.60
2018-01-24T00:44:27.645Z,92.80
2018-01-24T00:46:55.185Z,93.00
2018-01-24T00:49:23.482Z,93.20
2018-01-24T00:51:51.023Z,93.20
2018-01-24T00:54:19.373Z,93.60
2018-01-24T00:56:46.898Z,93.60
2018-01-24T00:59:14.466Z,93.70
2018-01-24T01:01:42.049Z,93.70
2018-01-24T01:04:09.568Z,93.90
2018-01-24T01:06:37.164Z,94.00
2018-01-24T01:09:04.678Z,94.10
2018-01-24T01:11:32.232Z,94.20
2018-01-24T01:13:59.782Z,94.40
2018-01-24T01:16:27.300Z,94.40
2018-01-24T01:18:54.838Z,94.50
2018-01-24T01:21:22.391Z,94.80
2018-01-24T01:23:49.944Z,94.80
2018-01-24T01:26:17.501Z,94.90
2018-01-24T01:28:45.028Z,94.80
2018-01-24T01:31:12.561Z,94.80
2018-01-24T01:33:40.180Z,94.70
2018-01-24T01:36:07.700Z,94.90
2018-01-24T01:38:35.222Z,95.00
2018-01-24T01:41:02.759Z,95.00
2018-01-24T01:43:30.302Z,95.00
2018-01-24T01:45:58.601Z,95.10
2018-01-24T01:48:31.749Z,95.00
2018-01-24T01:50:59.303Z,95.00
2018-01-24T01:53:26.835Z,95.10
2018-01-24T01:55:54.380Z,95.10
2018-01-24T01:58:22.679Z,95.20
2018-01-24T02:00:50.237Z,95.20
2018-01-24T02:03:18.610Z,95.30
2018-01-24T02:05:46.912Z,95.20
2018-01-24T02:08:14.451Z,95.20
2018-01-24T02:10:42.753Z,95.40
2018-01-24T02:13:10.626Z,95.30
2018-01-24T02:15:38.149Z,95.30
2018-01-24T02:18:05.662Z,95.30
2018-01-24T02:20:33.168Z,95.50
2018-01-24T02:23:02.277Z,95.70
2018-01-24T02:25:29.897Z,95.60
2018-01-24T02:27:57.414Z,95.50
2018-01-24T02:30:24.963Z,95.30
2018-01-24T02:32:52.598Z,95.50
2018-01-24T02:35:20.127Z,95.40
2018-01-24T02:37:48.447Z,95.50
2018-01-24T02:40:16.072Z,95.40
2018-01-24T02:42:44.372Z,95.60
2018-01-24T02:45:11.908Z,95.50
2018-01-24T02:47:39.441Z,95.50
2018-01-24T02:50:07.348Z,95.50
2018-01-24T02:52:34.909Z,95.60
2018-01-24T02:55:02.436Z,95.50
2018-01-24T02:57:30.022Z,95.60
2018-01-24T02:59:57.607Z,95.50
2018-01-24T03:02:25.155Z,95.50
2018-01-24T03:04:52.699Z,95.60
2018-01-24T03:07:20.249Z,95.60
2018-01-24T03:09:47.775Z,95.60
2018-01-24T03:12:15.386Z,95.60
2018-01-24T03:14:42.915Z,95.60
2018-01-24T03:17:11.257Z,95.80
2018-01-24T03:19:38.786Z,95.80
2018-01-24T03:22:06.304Z,95.90
2018-01-24T03:24:33.837Z,95.90
2018-01-24T03:27:01.427Z,95.80
2018-01-24T03:29:28.972Z,95.80
2018-01-24T03:31:56.522Z,95.80
2018-01-24T03:34:24.190Z,95.80
2018-01-24T03:36:51.711Z,95.80
2018-01-24T03:39:19.277Z,95.80
2018-01-24T03:41:46.808Z,95.80
2018-01-24T03:44:14.344Z,95.80
2018-01-24T03:46:41.872Z,95.90
2018-01-24T03:49:10.182Z,96.10
2018-01-24T03:51:37.763Z,95.80
2018-01-24T03:54:05.348Z,95.80
2018-01-24T03:56:33.704Z,95.80
2018-01-24T03:59:01.232Z,95.80
2018-01-24T04:01:28.845Z,95.70
2018-01-24T04:03:56.370Z,95.60
2018-01-24T04:06:23.904Z,95.70
2018-01-24T04:08:51.481Z,95.80
2018-01-24T04:11:19.011Z,95.80
2018-01-24T04:13:46.524Z,95.80
2018-01-24T04:16:14.076Z,95.90
2018-01-24T04:18:41.605Z,95.90
2018-01-24T04:21:09.176Z,95.70
2018-01-24T04:23:36.705Z,95.70
2018-01-24T04:26:04.992Z,95.70
2018-01-24T04:28:33.307Z,95.70
2018-01-24T04:31:00.860Z,95.70
2018-01-24T04:33:28.384Z,95.60
2018-01-24T04:35:55.910Z,95.60
2018-01-24T04:38:23.437Z,95.60
2018-01-24T04:40:51.719Z,95.60
2018-01-24T04:43:19.238Z,95.60
2018-01-24T04:45:46.761Z,95.50
2018-01-24T04:48:14.300Z,95.30
2018-01-24T04:50:42.590Z,95.10
2018-01-24T04:53:10.867Z,95.10
2018-01-24T04:55:39.159Z,95.20
2018-01-24T04:58:06.712Z,95.20
2018-01-24T05:00:35.016Z,95.20
2018-01-24T05:03:02.561Z,95.20
2018-01-24T05:05:30.850Z,95.20
2018-01-24T05:07:59.142Z,95.00
2018-01-24T05:10:26.673Z,95.00
2018-01-24T05:12:54.220Z,95.00
2018-01-24T05:15:21.950Z,95.40
2018-01-24T05:17:49.459Z,94.90
2018-01-24T05:20:17.564Z,94.90
2018-01-24T05:22:45.856Z,94.90
2018-01-24T05:25:13.415Z,94.90
2018-01-24T05:27:41.712Z,95.00
2018-01-24T05:30:09.312Z,94.90
2018-01-24T05:32:36.839Z,94.90
2018-01-24T05:35:04.376Z,95.00
2018-01-24T05:37:32.685Z,94.80
2018-01-24T05:40:00.287Z,95.00
2018-01-24T05:42:27.813Z,94.90
2018-01-24T05:44:56.100Z,95.00
2018-01-24T05:47:23.611Z,95.00
2018-01-24T05:49:51.500Z,95.00
2018-01-24T05:52:19.028Z,95.00
2018-01-24T05:54:46.555Z,95.00
2018-01-24T05:57:14.837Z,94.90
2018-01-24T05:59:43.123Z,95.00
2018-01-24T06:02:10.667Z,95.00
2018-01-24T06:04:38.297Z,95.00
2018-01-24T06:07:06.580Z,94.90
2018-01-24T06:09:34.103Z,94.90
2018-01-24T06:12:01.686Z,94.90
2018-01-24T06:14:29.226Z,94.80
2018-01-24T06:16:57.515Z,94.70
2018-01-24T06:19:25.101Z,94.70
2018-01-24T06:21:52.646Z,94.60
2018-01-24T06:24:20.985Z,94.70
2018-01-24T06:26:48.897Z,94.60
2018-01-24T06:29:17.196Z,94.80
2018-01-24T06:31:44.806Z,94.80
2018-01-24T06:34:12.345Z,94.70
2018-01-24T06:36:39.868Z,94.60
2018-01-24T06:39:08.285Z,94.50
2018-01-24T06:41:35.951Z,94.50
2018-01-24T06:44:03.476Z,94.50
2018-01-24T06:46:30.983Z,94.50
2018-01-24T06:48:58.515Z,94.40
2018-01-24T06:51:26.060Z,94.50
2018-01-24T06:53:53.585Z,94.70
2018-01-24T06:56:21.117Z,94.80
2018-01-24T06:58:49.476Z,94.70
2018-01-24T07:01:17.025Z,94.70
2018-01-24T07:03:45.345Z,94.70
2018-01-24T07:06:13.641Z,94.70
2018-01-24T07:08:41.199Z,94.70
2018-01-24T07:11:09.489Z,94.70
2018-01-24T07:13:48.976Z,94.70
2018-01-24T07:16:16.524Z,94.70
2018-01-24T07:18:44.055Z,94.80
2018-01-24T07:21:11.585Z,94.80
2018-01-24T07:23:39.130Z,95.00
2018-01-24T07:26:06.666Z,95.00
2018-01-24T07:28:34.204Z,94.90
2018-01-24T07:31:02.524Z,95.10
2018-01-24T07:33:30.139Z,95.00
2018-01-24T07:35:58.445Z,95.00
2018-01-24T07:38:26.728Z,95.00
2018-01-24T07:40:54.247Z,95.00
2018-01-24T07:43:21.872Z,95.00
2018-01-24T07:45:49.438Z,95.00
2018-01-24T07:48:16.968Z,95.00
2018-01-24T07:50:44.504Z,95.10
2018-01-24T07:53:12.028Z,95.00
2018-01-24T07:55:39.559Z,95.00
2018-01-24T07:58:07.075Z,95.10
2018-01-24T08:00:34.644Z,95.10
2018-01-24T08:03:02.171Z,95.20
2018-01-24T08:05:30.461Z,95.20
2018-01-24T08:07:57.989Z,95.20
2018-01-24T08:10:25.605Z,95.30
2018-01-24T08:12:53.141Z,95.70
2018-01-24T08:15:21.452Z,95.60
2018-01-24T08:17:49.855Z,95.60
2018-01-24T08:20:17.372Z,95.60
2018-01-24T08:22:45.674Z,95.80
2018-01-24T08:25:13.217Z,95.80
2018-01-24T08:27:41.505Z,95.90
2018-01-24T08:30:09.792Z,95.90
2018-01-24T08:32:37.335Z,95.90
2018-01-24T08:35:04.947Z,95.80
2018-01-24T08:37:32.464Z,96.00
2018-01-24T08:39:59.989Z,95.90
2018-01-24T08:42:27.520Z,95.80
2018-01-24T08:44:55.820Z,96.00
2018-01-24T08:47:24.431Z,96.00
2018-01-24T08:49:52.278Z,96.10
2018-01-24T08:52:19.798Z,96.00
2018-01-24T08:54:47.339Z,95.90
2018-01-24T08:57:15.653Z,96.00
2018-01-24T08:59:43.170Z,95.90
2018-01-24T09:02:10.712Z,96.00
2018-01-24T09:04:38.281Z,95.90
2018-01-24T09:07:05.800Z,96.00
2018-01-24T09:09:33.316Z,96.00
2018-01-24T09:12:00.870Z,96.10
2018-01-24T09:14:29.184Z,96.20
2018-01-24T09:16:56.721Z,96.10
2018-01-24T09:19:24.251Z,95.90
2018-01-24T09:21:51.780Z,96.00
2018-01-24T09:24:19.331Z,95.90
2018-01-24T09:26:46.963Z,95.90
2018-01-24T09:29:17.037Z,95.80
2018-01-24T09:31:44.580Z,95.80
2018-01-24T09:34:12.108Z,95.70
2018-01-24T09:36:40.406Z,95.90
2018-01-24T09:39:07.952Z,95.60
2018-01-24T09:41:35.490Z,95.70
2018-01-24T09:44:03.024Z,95.70
2018-01-24T09:46:30.544Z,95.50
2018-01-24T09:48:58.064Z,95.50
2018-01-24T09:51:25.620Z,95.60
2018-01-24T09:53:53.190Z,95.50
2018-01-24T09:56:20.745Z,95.50
2018-01-24T09:58:48.458Z,95.30
2018-01-24T10:01:15.983Z,95.30
2018-01-24T10:03:43.565Z,95.50
2018-01-24T10:06:11.264Z,95.30
2018-01-24T10:08:38.792Z,95.30
2018-01-24T10:11:06.329Z,95.30
2018-01-24T10:13:33.856Z,95.40
2018-01-24T10:16:01.740Z,95.30
2018-01-24T10:18:29.269Z,95.00
2018-01-24T10:20:56.799Z,95.00
2018-01-24T10:23:24.325Z,95.20
2018-01-24T10:25:51.853Z,95.00
2018-01-24T10:28:19.798Z,95.00
2018-01-24T10:30:48.089Z,94.70
2018-01-24T10:33:15.645Z,94.70
2018-01-24T10:35:43.949Z,94.60
2018-01-24T10:38:11.460Z,94.60
2018-01-24T10:40:38.987Z,94.70
2018-01-24T10:43:06.525Z,94.70
2018-01-24T10:45:34.054Z,94.60
2018-01-24T10:48:01.615Z,94.50
2018-01-24T10:50:29.196Z,94.80
2018-01-24T10:52:56.699Z,94.80
2018-01-24T10:55:24.224Z,94.70
2018-01-24T10:57:51.761Z,94.60
2018-01-24T11:00:19.835Z,94.60
2018-01-24T11:02:48.504Z,94.30
2018-01-24T11:05:16.089Z,94.30
2018-01-24T11:07:43.630Z,94.30
2018-01-24T11:10:11.242Z,94.30
2018-01-24T11:12:40.677Z,94.10
2018-01-24T11:15:08.212Z,94.20
2018-01-24T11:17:35.766Z,94.20
2018-01-24T11:20:03.276Z,94.10
2018-01-24T11:22:32.344Z,94.60
2018-01-24T11:24:59.883Z,94.30
2018-01-24T11:27:27.411Z,94.20
2018-01-24T11:29:55.836Z,94.20
2018-01-24T11:32:23.356Z,94.20
2018-01-24T11:34:51.643Z,93.80
2018-01-24T11:37:19.944Z,93.90
2018-01-24T11:39:47.708Z,93.90
2018-01-24T11:42:15.255Z,93.90
2018-01-24T11:44:43.569Z,93.00
2018-01-24T11:47:11.116Z,93.00
2018-01-24T11:49:39.799Z,92.70
2018-01-24T11:52:07.821Z,92.70
2018-01-24T11:54:35.495Z,92.50
2018-01-24T11:57:03.024Z,92.50
2018-01-24T11:59:30.592Z,92.50
2018-01-24T12:02:00.164Z,92.40
2018-01-24T12:04:28.675Z,92.30
2018-01-24T12:06:57.001Z,92.30
2018-01-24T12:09:24.544Z,92.30
2018-01-24T12:11:52.086Z,92.50
2018-01-24T12:14:20.385Z,92.10
2018-01-24T12:16:48.062Z,92.10
2018-01-24T12:19:15.710Z,92.10
2018-01-24T12:21:43.253Z,92.10
2018-01-24T12:24:10.767Z,92.30
2018-01-24T12:26:38.378Z,92.30
2018-01-24T12:29:05.942Z,92.30
2018-01-24T12:31:33.526Z,92.20
2018-01-24T12:34:01.139Z,92.10
2018-01-24T12:36:28.664Z,91.90
2018-01-24T12:38:57.287Z,91.90
2018-01-24T12:41:24.787Z,91.90
2018-01-24T12:43:52.341Z,91.90
2018-01-24T12:46:19.867Z,91.80
2018-01-24T12:48:48.267Z,91.70
2018-01-24T12:51:17.549Z,91.60
2018-01-24T12:53:45.846Z,91.80
2018-01-24T12:56:13.391Z,91.80
2018-01-24T12:58:41.684Z,91.70
2018-01-24T13:01:09.987Z,91.70
2018-01-24T13:03:37.503Z,91.70
2018-01-24T13:06:05.097Z,91.90
2018-01-24T13:08:34.832Z,91.90
2018-01-24T13:11:03.159Z,91.80
2018-01-24T13:13:30.697Z,91.80
2018-01-24T13:15:58.244Z,91.90
2018-01-24T13:18:25.799Z,91.90
2018-01-24T13:20:55.673Z,92.10
2018-01-24T13:23:23.372Z,92.20
2018-01-24T13:25:51.673Z,92.30
2018-01-24T13:28:20.261Z,92.20
2018-01-24T13:30:48.548Z,92.30
2018-01-24T13:33:16.151Z,92.30
2018-01-24T13:35:44.865Z,92.20
2018-01-24T13:38:12.382Z,92.20
2018-01-24T13:40:39.918Z,92.30
2018-01-24T13:43:07.484Z,92.30
2018-01-24T13:45:35.058Z,92.30
2018-01-24T13:48:03.346Z,92.50
2018-01-24T13:50:30.917Z,92.50
2018-01-24T13:52:58.448Z,92.50
2018-01-24T13:55:26.032Z,92.70
2018-01-24T13:57:54.360Z,93.10
2018-01-24T14:00:21.979Z,93.10
2018-01-24T14:02:49.502Z,93.10
2018-01-24T14:05:16.991Z,93.10
2018-01-24T14:07:44.531Z,93.30
2018-01-24T14:10:12.080Z,93.20
2018-01-24T14:12:39.616Z,93.20
2018-01-24T14:15:07.149Z,93.20
2018-01-24T14:17:34.760Z,93.30
2018-01-24T14:20:02.284Z,93.30
2018-01-24T14:22:29.831Z,93.10
2018-01-24T14:24:57.366Z,93.10
2018-01-24T14:27:24.869Z,93.10
2018-01-24T14:29:52.411Z,93.10
2018-01-24T14:32:19.988Z,93.10
2018-01-24T14:34:47.649Z,92.80
2018-01-24T14:37:15.185Z,92.50
2018-01-24T14:39:42.753Z,92.30
2018-01-24T14:42:10.348Z,92.00
2018-01-24T14:44:37.899Z,91.80
2018-01-24T14:47:05.444Z,91.80
2018-01-24T14:49:32.969Z,91.60
2018-01-24T14:52:01.387Z,91.30
2018-01-24T14:54:28.913Z,91.30
2018-01-24T14:56:56.445Z,91.00
2018-01-24T14:59:23.990Z,91.00
2018-01-24T15:01:51.576Z,90.80
2018-01-24T15:04:19.104Z,90.90
2018-01-24T15:06:47.469Z,90.40
2018-01-24T15:09:15.755Z,90.20
2018-01-24T15:11:44.252Z,90.10
2018-01-24T15:14:12.761Z,90.00
2018-01-24T15:16:40.300Z,90.00
2018-01-24T15:19:08.600Z,89.70
2018-01-24T15:21:36.143Z,89.70
2018-01-24T15:24:04.832Z,89.80
2018-01-24T15:26:33.152Z,89.20
2018-01-24T15:29:00.754Z,89.10
2018-01-24T15:31:28.334Z,89.20
2018-01-24T15:33:56.675Z,89.40
2018-01-24T15:36:24.225Z,89.40
2018-01-24T15:38:51.770Z,89.70
2018-01-24T15:41:20.058Z,88.80
2018-01-24T15:43:47.604Z,88.80
2018-01-24T15:46:15.939Z,89.50
2018-01-24T15:48:43.516Z,89.40
2018-01-24T15:51:11.045Z,88.40
2018-01-24T15:53:38.576Z,88.20
2018-01-24T15:56:06.138Z,88.10
2018-01-24T15:58:34.449Z,87.80
2018-01-24T16:01:02.009Z,87.70
2018-01-24T16:03:30.322Z,88.90
2018-01-24T16:05:57.837Z,88.80
2018-01-24T16:08:26.201Z,89.00
2018-01-24T16:10:53.712Z,88.90
2018-01-24T16:13:21.256Z,88.90
2018-01-24T16:15:49.543Z,89.70
2018-01-24T16:18:18.164Z,90.10
2018-01-24T16:20:46.202Z,90.10
2018-01-24T16:23:13.815Z,90.10
2018-01-24T16:25:41.375Z,90.10
2018-01-24T16:28:08.973Z,90.40
2018-01-24T16:30:36.495Z,90.50
2018-01-24T16:33:04.022Z,90.60
2018-01-24T16:35:31.537Z,90.70
2018-01-24T16:37:59.077Z,90.70
2018-01-24T16:40:27.410Z,90.90
2018-01-24T16:42:54.921Z,90.80
2018-01-24T16:45:23.224Z,90.90
2018-01-24T16:47:50.762Z,90.90
2018-01-24T16:50:18.358Z,91.00
2018-01-24T16:52:45.950Z,91.10
2018-01-24T16:55:13.675Z,91.10
2018-01-24T16:57:41.992Z,91.10
2018-01-24T17:00:09.555Z,91.10
2018-01-24T17:02:37.120Z,91.30
2018-01-24T17:05:04.666Z,91.60
2018-01-24T17:07:32.199Z,91.70
2018-01-24T17:10:00.536Z,91.90
2018-01-24T17:12:28.267Z,92.00
2018-01-24T17:14:55.801Z,92.10
2018-01-24T17:17:23.419Z,92.20
2018-01-24T17:19:50.945Z,92.30
2018-01-24T17:22:18.509Z,92.50
2018-01-24T17:24:46.071Z,92.50
2018-01-24T17:27:13.607Z,92.50
2018-01-24T17:29:41.133Z,92.50
2018-01-24T17:32:08.666Z,92.60
2018-01-24T17:34:36.276Z,92.80
2018-01-24T17:37:03.789Z,92.80
2018-01-24T17:39:31.312Z,92.80
2018-01-24T17:41:58.868Z,92.80
2018-01-24T17:44:26.388Z,92.80
2018-01-24T17:46:53.938Z,92.60
2018-01-24T17:49:21.463Z,92.50
2018-01-24T17:51:48.995Z,92.30
2018-01-24T17:54:17.415Z,91.80
2018-01-24T17:56:44.985Z,91.80
2018-01-24T17:59:12.532Z,91.70
2018-01-24T18:01:40.128Z,91.60
2018-01-24T18:04:07.666Z,91.50
2018-01-24T18:06:35.947Z,91.20
2018-01-24T18:09:03.524Z,91.20
2018-01-24T18:11:31.093Z,90.90
2018-01-24T18:13:58.625Z,90.90
2018-01-24T18:16:26.936Z,90.30
2018-01-24T18:18:54.540Z,90.20
2018-01-24T18:21:22.087Z,90.20
2018-01-24T18:23:49.647Z,90.20
2018-01-24T18:26:17.192Z,90.20
2018-01-24T18:28:44.713Z,90.10
2018-01-24T18:31:12.255Z,90.00
2018-01-24T18:33:39.805Z,90.10
2018-01-24T18:36:07.376Z,89.80
2018-01-24T18:38:34.904Z,90.10
2018-01-24T18:41:03.212Z,89.40
2018-01-24T18:43:30.745Z,89.40
2018-01-24T18:45:59.058Z,89.20
2018-01-24T18:48:26.597Z,89.20
2018-01-24T18:50:54.900Z,88.40
2018-01-24T18:53:22.438Z,88.40
2018-01-24T18:55:49.983Z,88.20
2018-01-24T18:58:17.508Z,88.00
2018-01-24T19:00:45.085Z,87.60
2018-01-24T19:03:12.660Z,87.60
2018-01-24T19:05:40.192Z,87.50
2018-01-24T19:08:07.707Z,87.50
2018-01-24T19:10:35.241Z,87.20
2018-01-24T19:13:02.895Z,86.90
2018-01-24T19:15:31.277Z,86.30
2018-01-24T19:17:58.809Z,86.30
2018-01-24T19:20:27.153Z,86.20
2018-01-24T19:22:54.739Z,86.10
2018-01-24T19:25:22.366Z,85.50
2018-01-24T19:27:49.899Z,85.20
2018-01-24T19:30:18.205Z,84.90
2018-01-24T19:32:45.812Z,84.90
2018-01-24T19:35:13.368Z,84.70
2018-01-24T19:37:40.991Z,84.40
2018-01-24T19:40:09.387Z,84.30
2018-01-24T19:42:36.901Z,84.30
2018-01-24T19:45:04.459Z,84.30
2018-01-24T19:47:32.847Z,84.60
2018-01-24T19:50:00.412Z,84.50
2018-01-24T19:52:27.940Z,84.70
2018-01-24T19:54:55.479Z,84.90
2018-01-24T19:57:23.782Z,85.40
2018-01-24T19:59:51.314Z,85.40
2018-01-24T20:02:19.628Z,85.90
2018-01-24T20:04:47.224Z,85.80
2018-01-24T20:07:14.749Z,86.00
2018-01-24T20:09:42.292Z,86.40
2018-01-24T20:12:10.596Z,86.90
2018-01-24T20:14:38.228Z,86.80
2018-01-24T20:17:06.619Z,86.80
2018-01-24T20:19:34.396Z,86.90
2018-01-24T20:22:02.778Z,87.00
2018-01-24T20:24:30.337Z,87.30
2018-01-24T20:26:57.866Z,87.30
2018-01-24T20:29:26.180Z,87.50
2018-01-24T20:31:54.568Z,87.50
2018-01-24T20:34:22.099Z,87.60
2018-01-24T20:36:49.741Z,87.70
2018-01-24T20:39:17.295Z,87.70
2018-01-24T20:41:44.976Z,87.50
2018-01-24T20:44:12.497Z,87.30
2018-01-24T20:46:40.047Z,87.30
2018-01-24T20:49:07.664Z,87.20
2018-01-24T20:51:35.253Z,87.60
2018-01-24T20:54:02.781Z,87.80
2018-01-24T20:56:31.118Z,88.10
2018-01-24T20:58:58.752Z,88.10
2018-01-24T21:01:26.288Z,88.00
2018-01-24T21:03:54.904Z,88.20
2018-01-24T21:06:22.421Z,88.10
2018-01-24T21:08:49.939Z,88.30
2018-01-24T21:11:17.473Z,88.00
2018-01-24T21:13:45.755Z,88.00
2018-01-24T21:16:14.347Z,88.00
2018-01-24T21:18:42.665Z,88.20
2018-01-24T21:21:10.182Z,88.10
2018-01-24T21:23:38.491Z,88.20
2018-01-24T21:26:06.037Z,88.80
2018-01-24T21:28:45.213Z,88.20
2018-01-24T21:34:37.807Z,88.20
2018-01-24T21:37:06.119Z,88.40
2018-01-24T21:39:33.686Z,88.40
2018-01-24T21:42:01.205Z,88.30
2018-01-24T21:44:28.724Z,88.10
2018-01-24T21:46:56.264Z,88.10
2018-01-24T21:49:23.791Z,88.30
2018-01-24T21:51:51.328Z,88.20
2018-01-24T21:54:18.975Z,87.90
2018-01-24T21:56:46.567Z,87.90
2018-01-24T21:59:14.315Z,87.90
2018-01-24T22:01:41.831Z,87.90
2018-01-24T22:04:09.354Z,87.90
2018-01-24T22:06:36.913Z,88.20
2018-01-24T22:09:04.456Z,88.40
2018-01-24T22:11:32.767Z,88.50
2018-01-24T22:14:00.396Z,88.40
2018-01-24T22:16:28.688Z,88.50
2018-01-24T22:18:56.987Z,88.30
2018-01-24T22:21:24.641Z,88.30
2018-01-24T22:23:52.174Z,88.20
2018-01-24T22:26:20.495Z,88.80
2018-01-24T22:28:48.001Z,88.20
2018-01-24T22:31:15.637Z,88.40
2018-01-24T22:33:43.173Z,88.70
2018-01-24T22:36:11.477Z,88.90
2018-01-24T22:38:39.032Z,88.90
2018-01-24T22:41:06.588Z,88.90
2018-01-24T22:43:34.176Z,89.00
2018-01-24T22:46:01.784Z,89.10
2018-01-24T22:48:29.341Z,89.20
2018-01-24T22:50:56.906Z,89.40
2018-01-24T22:53:24.451Z,89.50
2018-01-24T22:55:51.979Z,89.50
2018-01-24T22:58:19.509Z,89.40
2018-01-24T23:00:47.046Z,89.30
2018-01-24T23:03:14.599Z,89.00
2018-01-24T23:05:42.169Z,89.00
2018-01-24T23:08:09.688Z,88.70
2018-01-24T23:10:37.995Z,89.20
2018-01-24T23:13:05.549Z,88.50
2018-01-24T23:15:33.904Z,88.40
2018-01-24T23:18:01.484Z,88.30
2018-01-24T23:20:29.017Z,88.40
2018-01-24T23:22:56.549Z,88.60
2018-01-24T23:25:24.170Z,88.30
2018-01-24T23:27:51.722Z,88.30
2018-01-24T23:30:19.273Z,88.30
2018-01-24T23:32:46.801Z,88.20
2018-01-24T23:35:14.361Z,88.10
2018-01-24T23:37:41.893Z,87.90
2018-01-24T23:40:09.453Z,87.80
2018-01-24T23:42:36.979Z,87.60
2018-01-24T23:45:04.520Z,87.20
2018-01-24T23:47:32.823Z,86.40
2018-01-24T23:50:00.348Z,86.30
2018-01-24T23:52:27.891Z,86.40
2018-01-24T23:54:55.403Z,85.80
2018-01-24T23:57:22.933Z,85.50
2018-01-24T23:59:50.454Z,85.60
